Terminal Aerodrome Forecast
Issued by NWS Twin Cities, MN

Home | Current Version | Previous Version | Graphics & Text | Print | Product List | Glossary Off
Versions: 1 2 3 4 5 6 7 8 9 10 11 12 13 14 15

000
FTUS43 KMPX 292335
TAFSTC
TAF
KSTC 292335Z 3000/3024 32016G22KT P6SM FEW060
     FM300100 29010KT P6SM SCT080
     FM300500 27006KT P6SM BKN070
     FM301200 VRB03KT P6SM OVC060
     FM302000 23008KT P6SM BKN060=

USA.gov is the U.S. government's official web portal to all federal, state and local government web resources and services.